Chilik Southeast Airfield

Jump to: basic info | weather | comments

Related pages: nearby airports | nearby navaids

Basic information (top)

Location: lon 43.223598, lat 78.732399, elev 4,497 ft / 1,371 m msl
Status: small_airport

Weather (top)

Current conditions for Almaty Airport 74nm (138km) W (rec'd 2014/08/28 08:30Z):

UAAA 280830Z 01002MPS 320V100 9999 BKN200 27/03 Q1013 R88/65D NOSIG

Airport forecast for Almaty Airport 74nm (138km) W (rec'd 2014/08/28 06:00Z):

TAF UAAA 280500Z 2806/2906 04006MPS 9999 NSC TX28/2809Z TN12/2900Z 
      BECMG 2815/2816 16005MPS

Latest comments (top)

Spelling: OK oK its Kazakhstan♄, so you have a ... [read]

Airfield: I came across this airfield on Google, ... [read]

More... (top)

See also NOTAMs and nearby airports and navaids, or visit the Chilik Southeast Airfield page at the main OurAirports website..